Time;durP1;ratioP1;P1;durP2;ratioP2;P2;SDS_P1;SDS_P2;PMS_P1;PMS_P2;Temp;Humidity;BMP_temperature;BMP_pressure;BME280_temperature;BME280_humidity;BME280_pressure;Samples;Min_cycle;Max_cycle;Signal;HPM_P1;HPM_P2
2022/03/13 00:02:11;;;;;;;3.13;2.92;;;;;;;10.74;70.35;101375.41;10394496;28;20146;-73
2022/03/13 00:07:25;;;;;;;3.10;2.10;;;;;;;10.68;70.75;101373.47;10416734;28;20387;-73
2022/03/13 00:12:30;;;;;;;3.95;2.50;;;;;;;10.46;72.39;101367.09;10416854;28;20113;-73
2022/03/13 00:17:30;;;;;;;4.57;3.58;;;;;;;10.45;73.49;101368.13;10415238;28;20033;-73
2022/03/13 00:22:31;;;;;;;3.10;2.70;;;;;;;10.58;72.61;101367.47;10416517;28;20072;-73
2022/03/13 00:27:34;;;;;;;3.95;2.55;;;;;;;10.62;72.47;101357.94;10416280;28;20025;-73
2022/03/13 00:32:34;;;;;;;3.30;3.00;;;;;;;10.47;72.52;101356.09;10416410;28;20390;-72
2022/03/13 00:37:34;;;;;;;4.32;3.38;;;;;;;10.53;72.49;101361.78;10415811;28;20059;-73
2022/03/13 00:42:35;;;;;;;3.20;2.92;;;;;;;10.56;72.76;101364.97;10415911;28;20069;-74
2022/03/13 00:47:35;;;;;;;4.45;3.40;;;;;;;10.56;71.76;101364.09;10415680;28;20026;-73
2022/03/13 00:52:36;;;;;;;4.80;2.42;;;;;;;10.62;71.55;101352.53;10415257;28;20049;-73
2022/03/13 00:57:36;;;;;;;3.95;2.83;;;;;;;10.68;71.17;101344.50;10415536;28;20060;-73
2022/03/13 01:02:38;;;;;;;4.68;3.40;;;;;;;10.65;70.82;101344.88;10415252;28;20025;-73
2022/03/13 01:07:38;;;;;;;3.47;3.08;;;;;;;10.64;71.24;101329.66;10414596;28;20037;-74
2022/03/13 01:12:39;;;;;;;3.50;3.20;;;;;;;10.64;70.59;101329.66;10415402;28;20432;-73
2022/03/13 01:17:39;;;;;;;2.55;1.90;;;;;;;10.69;70.07;101329.94;10396855;28;20153;-73
2022/03/13 01:22:39;;;;;;;4.30;3.65;;;;;;;10.73;69.80;101326.88;10413602;28;20041;-73
2022/03/13 01:27:40;;;;;;;3.03;2.80;;;;;;;10.78;69.89;101319.00;10414484;28;20029;-73
2022/03/13 01:32:47;;;;;;;2.22;2.03;;;;;;;10.75;69.28;101320.22;10413220;28;20511;-73
2022/03/13 01:37:47;;;;;;;4.63;3.20;;;;;;;10.75;69.63;101320.22;10412852;28;20145;-72
2022/03/13 01:42:48;;;;;;;3.53;2.85;;;;;;;10.79;69.16;101321.53;10412836;28;20045;-73
2022/03/13 01:47:48;;;;;;;4.90;3.00;;;;;;;10.76;69.17;101297.53;10413033;28;20083;-74
2022/03/13 01:52:49;;;;;;;3.42;3.13;;;;;;;10.74;69.00;101290.63;10414457;28;20041;-72
2022/03/13 01:57:49;;;;;;;2.38;2.03;;;;;;;10.73;69.17;101295.19;10413704;28;20072;-74
2022/03/13 02:02:50;;;;;;;3.20;2.85;;;;;;;10.76;69.02;101294.81;10413565;28;20111;-72
2022/03/13 02:07:50;;;;;;;3.95;3.47;;;;;;;10.78;68.65;101278.38;10411900;28;20037;-72
2022/03/13 02:12:51;;;;;;;2.40;2.20;;;;;;;10.77;69.01;101273.97;10395933;28;20037;-73
2022/03/13 02:17:51;;;;;;;4.13;2.67;;;;;;;10.80;68.59;101277.16;10411980;28;20493;-72
2022/03/13 02:22:53;;;;;;;2.90;2.70;;;;;;;10.76;69.11;101266.91;10412073;28;20037;-72
2022/03/13 02:27:53;;;;;;;3.20;2.83;;;;;;;10.69;69.33;101270.34;10413179;28;20525;-73
2022/03/13 02:32:53;;;;;;;2.55;2.35;;;;;;;10.74;69.34;101266.22;10413175;28;20091;-72
2022/03/13 02:37:54;;;;;;;3.00;2.80;;;;;;;10.68;69.26;101257.81;10412264;28;20057;-73
2022/03/13 02:42:56;;;;;;;4.53;3.05;;;;;;;10.64;69.43;101250.28;10416084;28;20171;-73
2022/03/13 02:47:57;;;;;;;2.65;2.42;;;;;;;10.59;69.74;101244.59;10420413;28;20045;-72
2022/03/13 02:52:57;;;;;;;2.53;2.33;;;;;;;10.56;69.79;101240.41;10402534;28;20033;-72
2022/03/13 02:57:58;;;;;;;3.70;2.65;;;;;;;10.52;70.09;101225.53;10420014;28;20362;-73
2022/03/13 03:02:58;;;;;;;3.33;2.95;;;;;;;10.52;70.13;101239.09;10419750;28;20038;-74
2022/03/13 03:07:59;;;;;;;3.00;2.80;;;;;;;10.56;69.87;101242.25;10401072;28;20096;-73
2022/03/13 03:13:00;;;;;;;4.90;2.85;;;;;;;10.54;69.89;101238.91;10435263;28;20150;-73
2022/03/13 03:18:02;;;;;;;4.00;2.92;;;;;;;10.48;70.79;101245.91;10419123;28;20469;-73
2022/03/13 03:23:03;;;;;;;4.35;2.58;;;;;;;10.46;70.90;101232.59;10418270;28;20040;-72
2022/03/13 03:28:04;;;;;;;3.90;3.20;;;;;;;10.48;70.56;101245.91;10418907;28;20044;-74
2022/03/13 03:33:04;;;;;;;2.63;2.53;;;;;;;10.52;70.70;101244.50;10418529;28;20041;-72
2022/03/13 03:38:04;;;;;;;3.45;3.15;;;;;;;10.47;71.06;101253.19;10417774;28;20064;-72
2022/03/13 03:43:05;;;;;;;2.78;2.58;;;;;;;10.42;71.24;101258.31;10418120;28;20038;-73
2022/03/13 03:48:05;;;;;;;4.30;2.80;;;;;;;10.46;71.47;101251.53;10418455;28;20113;-74
2022/03/13 03:53:06;;;;;;;3.13;2.83;;;;;;;10.39;72.49;101261.41;10417993;28;20038;-73
2022/03/13 03:58:06;;;;;;;3.20;2.85;;;;;;;10.38;72.28;101259.75;10417525;28;20658;-74
2022/03/13 04:03:06;;;;;;;7.05;3.08;;;;;;;10.37;72.87;101258.06;10417599;28;20034;-74
2022/03/13 04:08:07;;;;;;;4.00;3.53;;;;;;;10.37;72.48;101255.38;10416572;28;20060;-74
2022/03/13 04:13:07;;;;;;;4.32;3.92;;;;;;;10.36;73.38;101255.53;10417142;28;20449;-73
2022/03/13 04:18:09;;;;;;;3.85;2.85;;;;;;;10.32;73.89;101249.66;10415566;28;20033;-73
2022/03/13 04:23:09;;;;;;;4.45;3.28;;;;;;;10.25;73.78;101246.84;10416407;28;20044;-73
2022/03/13 04:28:10;;;;;;;2.72;2.50;;;;;;;10.17;75.08;101251.50;10415813;28;20044;-73
2022/03/13 04:33:11;;;;;;;2.75;2.65;;;;;;;10.06;75.36;101251.97;10416082;28;20447;-73
2022/03/13 04:38:11;;;;;;;4.60;3.33;;;;;;;9.94;76.23;101240.75;10414176;28;20472;-72
2022/03/13 04:43:11;;;;;;;3.15;2.75;;;;;;;9.72;78.46;101237.06;10415926;28;20029;-73
2022/03/13 04:48:12;;;;;;;3.33;3.00;;;;;;;9.61;79.35;101238.38;10414349;28;20036;-73
2022/03/13 04:53:13;;;;;;;2.75;2.33;;;;;;;9.50;80.53;101238.78;10415487;28;20037;-73
2022/03/13 04:58:13;;;;;;;3.72;3.38;;;;;;;9.33;81.95;101243.50;10413944;28;20114;-73
2022/03/13 05:03:14;;;;;;;4.88;3.78;;;;;;;9.19;83.23;101242.44;10415133;28;20030;-72
2022/03/13 05:08:15;;;;;;;3.80;3.50;;;;;;;9.08;84.63;101240.13;10412956;28;20069;-72
2022/03/13 05:13:16;;;;;;;5.20;3.95;;;;;;;9.04;85.84;101242.34;10397351;28;20033;-72
2022/03/13 05:18:17;;;;;;;4.38;3.67;;;;;;;8.94;87.93;101241.75;10430108;28;20167;-72
2022/03/13 05:23:17;;;;;;;4.53;4.10;;;;;;;8.88;88.67;101242.47;10413213;28;20056;-73
2022/03/13 05:28:17;;;;;;;5.53;4.60;;;;;;;8.80;89.60;101229.81;10413287;28;20131;-71
2022/03/13 05:33:18;;;;;;;5.78;5.03;;;;;;;8.78;90.55;101234.59;10414383;28;20061;-73
2022/03/13 05:38:18;;;;;;;5.93;5.35;;;;;;;8.85;90.21;101229.31;10413810;28;20394;-73
2022/03/13 05:43:22;;;;;;;5.63;5.13;;;;;;;8.87;90.45;101226.41;10412832;28;20045;-72
2022/03/13 05:48:23;;;;;;;5.70;4.25;;;;;;;8.89;90.84;101238.72;10413978;28;20090;-72
2022/03/13 05:53:23;;;;;;;6.03;4.45;;;;;;;8.88;91.01;101218.16;10414128;28;20057;-72
2022/03/13 05:58:24;;;;;;;6.18;5.43;;;;;;;8.99;90.48;101220.44;10396306;28;20037;-73
2022/03/13 06:03:24;;;;;;;5.68;5.18;;;;;;;8.99;90.43;101233.09;10414274;28;20042;-72
2022/03/13 06:08:25;;;;;;;5.10;4.57;;;;;;;8.98;90.68;101224.16;10413466;28;20026;-72
2022/03/13 06:13:25;;;;;;;7.07;6.28;;;;;;;9.01;89.89;101237.31;10412239;28;20037;-72
2022/03/13 06:18:31;;;;;;;5.18;4.78;;;;;;;9.13;89.04;101236.91;10418016;28;20358;-72
2022/03/13 06:23:32;;;;;;;10.07;6.55;;;;;;;9.12;88.84;101240.59;10422624;28;20041;-72
2022/03/13 06:28:33;;;;;;;7.78;5.88;;;;;;;8.99;89.34;101241.19;10422325;28;20112;-72
2022/03/13 06:33:34;;;;;;;7.30;5.80;;;;;;;8.91;90.16;101244.81;10419995;28;20393;-73
2022/03/13 06:38:35;;;;;;;10.02;5.85;;;;;;;8.90;90.35;101247.66;10419811;28;20054;-73
2022/03/13 06:43:35;;;;;;;6.80;6.10;;;;;;;8.98;89.31;101245.75;10420657;28;20021;-71
2022/03/13 06:48:36;;;;;;;10.30;5.90;;;;;;;9.09;89.40;101241.81;10418972;28;20029;-72
2022/03/13 06:53:36;;;;;;;6.20;5.15;;;;;;;9.08;89.63;101235.56;10420563;28;20092;-72
2022/03/13 06:58:39;;;;;;;6.70;4.30;;;;;;;9.05;89.55;101237.78;10420184;28;20559;-74
2022/03/13 07:03:40;;;;;;;8.85;6.65;;;;;;;9.03;88.96;101251.50;10419234;28;20122;-72
2022/03/13 07:08:40;;;;;;;12.77;7.13;;;;;;;9.13;88.61;101250.41;10419679;28;20095;-72
2022/03/13 07:13:44;;;;;;;8.18;6.40;;;;;;;9.30;87.50;101246.56;10418017;28;20048;-73
2022/03/13 07:18:44;;;;;;;18.13;7.97;;;;;;;10.21;84.04;101248.25;10418177;28;20469;-72
2022/03/13 07:23:45;;;;;;;9.18;7.57;;;;;;;10.89;79.93;101248.09;10417737;28;20091;-73
2022/03/13 07:28:45;;;;;;;8.45;7.30;;;;;;;11.51;78.25;101249.31;10418612;28;20145;-72
2022/03/13 07:33:46;;;;;;;7.68;6.88;;;;;;;11.36;77.37;101249.41;10418637;28;20447;-72
2022/03/13 07:38:46;;;;;;;8.32;7.05;;;;;;;12.40;73.22;101248.72;10418132;28;20116;-73
2022/03/13 07:43:46;;;;;;;8.05;7.25;;;;;;;11.45;75.29;101250.09;10417387;28;20514;-73
2022/03/13 07:48:47;;;;;;;10.32;8.15;;;;;;;10.82;78.23;101253.44;10418436;28;20120;-73
2022/03/13 07:53:48;;;;;;;13.80;9.00;;;;;;;10.63;79.43;101249.44;10417850;28;20041;-73
2022/03/13 07:58:48;;;;;;;12.98;10.20;;;;;;;10.69;78.89;101245.16;10418150;28;20457;-72
2022/03/13 08:03:51;;;;;;;14.27;10.43;;;;;;;10.77;78.03;101234.19;10383449;28;20497;-72
2022/03/13 08:08:51;;;;;;;13.00;10.02;;;;;;;11.13;76.67;101230.59;10416869;28;20120;-73
2022/03/13 08:13:52;;;;;;;18.00;11.95;;;;;;;11.61;75.01;101231.69;10417618;28;20060;-72
2022/03/13 08:18:53;;;;;;;10.48;8.20;;;;;;;11.60;74.06;101231.88;10417188;28;20033;-73
2022/03/13 08:23:55;;;;;;;11.23;8.98;;;;;;;12.21;72.04;101234.00;10415833;28;20390;-72
2022/03/13 08:28:55;;;;;;;11.85;9.45;;;;;;;13.53;67.19;101236.34;10415780;28;20032;-71
2022/03/13 08:33:56;;;;;;;17.50;10.30;;;;;;;14.27;63.69;101220.75;10416886;28;20059;-73
2022/03/13 08:38:57;;;;;;;14.15;11.07;;;;;;;14.79;61.76;101213.44;10415927;28;20056;-72
2022/03/13 08:43:57;;;;;;;13.48;11.48;;;;;;;14.94;59.90;101216.69;10403143;28;20476;-73
2022/03/13 08:48:57;;;;;;;13.02;11.73;;;;;;;14.98;58.61;101214.38;10416484;28;20473;-72
2022/03/13 08:53:58;;;;;;;21.75;11.32;;;;;;;15.11;57.13;101236.09;10415261;28;20037;-72
2022/03/13 08:58:58;;;;;;;15.40;10.35;;;;;;;15.38;57.56;101214.09;10415889;28;20146;-72
2022/03/13 09:03:59;;;;;;;14.73;12.68;;;;;;;15.17;56.71;101224.31;10415249;28;20492;-72
2022/03/13 09:08:59;;;;;;;13.40;9.38;;;;;;;15.60;55.51;101215.38;10413924;28;20041;-72
2022/03/13 09:14:00;;;;;;;12.27;9.43;;;;;;;16.07;54.19;101210.34;10415162;28;20049;-72
2022/03/13 09:19:00;;;;;;;14.40;9.52;;;;;;;15.94;53.35;101211.31;10419127;28;20041;-71
2022/03/13 09:24:03;;;;;;;17.33;12.45;;;;;;;15.99;53.36;101216.94;10418312;28;20025;-73
2022/03/13 09:29:04;;;;;;;13.85;10.77;;;;;;;16.31;52.74;101207.78;10413708;28;20133;-72
2022/03/13 09:34:04;;;;;;;14.52;11.35;;;;;;;16.74;50.92;101211.22;10415894;28;20376;-77
2022/03/13 09:39:05;;;;;;;12.68;10.85;;;;;;;16.47;51.25;101204.44;10415407;28;20488;-72
2022/03/13 09:44:07;;;;;;;10.10;8.85;;;;;;;17.12;49.04;101212.81;10416201;28;20075;-72
2022/03/13 09:49:07;;;;;;;12.55;10.10;;;;;;;16.95;48.71;101206.34;10423165;28;20082;-73
2022/03/13 09:54:08;;;;;;;14.05;9.52;;;;;;;16.92;49.35;101188.50;10434110;28;20099;-72
2022/03/13 09:59:08;;;;;;;9.18;7.97;;;;;;;16.46;49.78;101184.47;10441099;28;20037;-73
2022/03/13 10:04:09;;;;;;;19.67;8.68;;;;;;;17.05;48.18;101203.06;10436275;28;20041;-74
2022/03/13 10:09:25;;;;;;;12.25;9.35;;;;;;;17.29;47.07;101191.06;10388004;28;20049;-73
2022/03/13 10:14:25;;;;;;;11.80;10.33;;;;;;;17.66;46.70;101191.72;10446195;28;20033;-73
2022/03/13 10:19:27;;;;;;;10.27;9.18;;;;;;;17.74;46.99;101176.00;10446061;28;20481;-73
2022/03/13 10:24:28;;;;;;;11.32;8.25;;;;;;;18.01;45.67;101185.44;10449419;28;20029;-72
2022/03/13 10:29:29;;;;;;;8.48;7.35;;;;;;;17.71;45.56;101171.88;10446089;28;20034;-73
2022/03/13 10:34:29;;;;;;;11.32;8.18;;;;;;;17.62;45.37;101204.25;10443841;28;20041;-72
2022/03/13 10:39:30;;;;;;;11.27;7.90;;;;;;;17.88;44.80;101175.56;10463292;28;20052;-73
2022/03/13 10:44:35;;;;;;;9.07;7.82;;;;;;;18.20;43.90;101172.44;10482090;28;20036;-73
2022/03/13 10:49:40;;;;;;;9.20;7.28;;;;;;;18.44;44.62;101155.91;10478030;28;20036;-72
2022/03/13 10:54:46;;;;;;;9.32;6.85;;;;;;;19.13;41.12;101153.09;10475277;28;20033;-72
2022/03/13 11:00:05;;;;;;;7.35;6.65;;;;;;;18.50;42.23;101146.69;10477340;28;20047;-73
2022/03/13 11:05:06;;;;;;;15.13;7.43;;;;;;;19.56;40.54;101151.59;10479034;28;20040;-73
2022/03/13 11:10:07;;;;;;;9.85;6.80;;;;;;;19.17;40.97;101162.50;10479167;28;20040;-74
2022/03/13 11:15:08;;;;;;;8.82;6.90;;;;;;;18.59;41.45;101148.81;10478029;28;20037;-74
2022/03/13 11:20:09;;;;;;;9.07;7.50;;;;;;;18.76;41.68;101142.56;10461834;28;20452;-73
2022/03/13 11:25:10;;;;;;;8.02;6.55;;;;;;;18.80;41.11;101166.53;10434034;28;20041;-72
2022/03/13 11:30:17;;;;;;;8.45;6.82;;;;;;;18.88;41.80;101150.75;10407433;28;20042;-71
2022/03/13 11:35:18;;;;;;;7.68;6.95;;;;;;;19.01;40.32;101150.44;10443809;28;20381;-70
2022/03/13 11:40:38;;;;;;;9.15;5.68;;;;;;;18.90;41.81;101146.69;10433831;28;20025;-72
2022/03/13 11:45:40;;;;;;;9.48;6.50;;;;;;;18.99;41.07;101134.22;10429209;28;20113;-72
2022/03/13 11:50:47;;;;;;;8.48;6.97;;;;;;;18.76;40.72;101134.34;10422925;28;20059;-72
2022/03/13 11:55:57;;;;;;;8.90;6.85;;;;;;;18.93;42.41;101145.34;10379650;28;20052;-69
2022/03/13 12:01:05;;;;;;;7.90;5.85;;;;;;;18.63;41.13;101131.84;10433681;28;20040;-72
2022/03/13 12:06:05;;;;;;;8.73;6.05;;;;;;;18.79;40.63;101131.94;10439659;28;20381;-72
2022/03/13 12:11:38;;;;;;;10.50;5.85;;;;;;;18.81;40.91;101116.06;10452840;28;20056;-73
2022/03/13 12:16:40;;;;;;;9.15;6.07;;;;;;;19.10;40.14;101120.66;10435270;28;20134;-72
2022/03/13 12:21:46;;;;;;;8.60;6.63;;;;;;;19.16;39.76;101125.16;10435124;28;20404;-73
2022/03/13 12:26:47;;;;;;;6.15;5.55;;;;;;;19.29;40.68;101120.16;10434629;28;20037;-72
2022/03/13 12:31:49;;;;;;;6.93;5.53;;;;;;;18.96;40.27;101112.75;10431679;28;20034;-70
2022/03/13 12:36:49;;;;;;;7.63;6.13;;;;;;;18.66;41.21;101099.28;10428819;28;20050;-71
2022/03/13 12:41:58;;;;;;;7.22;6.03;;;;;;;19.23;39.79;101088.22;10426907;28;20041;-71
2022/03/13 12:46:58;;;;;;;7.88;6.22;;;;;;;19.88;38.85;101096.88;10425969;28;20063;-72
2022/03/13 12:51:59;;;;;;;8.23;5.90;;;;;;;19.50;38.20;101093.84;10421672;28;20476;-73
2022/03/13 12:57:01;;;;;;;7.07;5.40;;;;;;;19.02;38.48;101088.97;10419491;28;20025;-73
2022/03/13 13:02:04;;;;;;;6.40;5.78;;;;;;;19.02;38.19;101083.50;10418875;28;20037;-75
2022/03/13 13:07:05;;;;;;;4.65;4.22;;;;;;;18.98;37.97;101090.53;10416430;28;20040;-72
2022/03/13 13:12:09;;;;;;;6.65;6.07;;;;;;;18.86;38.73;101089.78;10397906;28;20025;-73
2022/03/13 13:17:14;;;;;;;5.53;5.10;;;;;;;18.73;39.33;101105.50;10397933;28;20057;-75
2022/03/13 13:22:15;;;;;;;12.07;5.45;;;;;;;18.42;39.50;101092.25;10411932;28;20330;-72
2022/03/13 13:27:34;;;;;;;5.78;5.28;;;;;;;18.26;39.39;101107.59;10415986;28;20029;-72
2022/03/13 13:32:35;;;;;;;6.63;4.45;;;;;;;18.34;39.70;101107.19;10417511;28;20041;-72
2022/03/13 13:37:56;;;;;;;3.83;3.53;;;;;;;18.48;39.29;101091.28;10411548;28;20446;-71
2022/03/13 13:42:59;;;;;;;5.03;3.88;;;;;;;18.55;38.80;101084.56;10413760;28;20046;-72
2022/03/13 13:48:41;;;;;;;4.25;3.85;;;;;;;18.48;38.66;101116.78;10413832;28;20029;-72
2022/03/13 13:54:05;;;;;;;5.03;4.50;;;;;;;18.59;38.35;101085.72;10365040;28;20052;-72
2022/03/13 13:59:16;;;;;;;3.35;3.13;;;;;;;18.56;38.15;101085.38;10408002;28;20029;-71
2022/03/13 14:04:17;;;;;;;3.60;3.30;;;;;;;18.60;38.17;101067.34;10395669;28;20033;-71
2022/03/13 14:09:17;;;;;;;2.88;2.60;;;;;;;17.85;39.22;101071.94;10412236;28;20033;-72
2022/03/13 14:14:18;;;;;;;3.47;3.20;;;;;;;17.74;39.28;101064.56;10413081;28;20033;-72
2022/03/13 14:19:19;;;;;;;3.65;3.35;;;;;;;18.31;39.13;101055.56;10413382;28;20034;-73
2022/03/13 14:24:19;;;;;;;3.45;3.15;;;;;;;18.68;38.26;101064.22;10395271;28;20037;-72
2022/03/13 14:29:21;;;;;;;6.47;3.55;;;;;;;18.74;38.82;101067.94;10395415;28;20087;-71
2022/03/13 14:34:21;;;;;;;6.93;3.08;;;;;;;18.28;39.54;101070.63;10395083;28;20140;-72
2022/03/13 14:39:22;;;;;;;3.83;3.50;;;;;;;17.82;40.55;101068.84;10416583;28;20052;-72
2022/03/13 14:44:23;;;;;;;4.57;3.70;;;;;;;17.36;40.55;101073.28;10421648;28;20038;-72
2022/03/13 14:49:24;;;;;;;3.83;3.08;;;;;;;17.33;41.27;101079.25;10420169;28;20121;-70
2022/03/13 14:54:26;;;;;;;5.00;3.13;;;;;;;17.09;41.48;101072.91;10418571;28;20441;-70
2022/03/13 14:59:26;;;;;;;3.00;1.92;;;;;;;17.04;41.78;101090.03;10415448;28;20063;-74
2022/03/13 15:04:26;;;;;;;2.00;1.90;;;;;;;16.76;42.22;101085.22;10419892;28;20121;-73
2022/03/13 15:09:27;;;;;;;2.95;2.60;;;;;;;16.46;42.61;101086.06;10416988;28;20038;-73
2022/03/13 15:14:27;;;;;;;2.88;2.63;;;;;;;16.28;42.73;101072.44;10417313;28;20061;-73
2022/03/13 15:19:28;;;;;;;3.13;2.08;;;;;;;16.23;42.20;101107.81;10400096;28;20060;-72
2022/03/13 15:24:30;;;;;;;2.55;2.35;;;;;;;16.20;42.79;101103.63;10412870;28;20041;-72
2022/03/13 15:29:31;;;;;;;4.20;2.55;;;;;;;16.25;42.73;101102.94;10360071;28;20048;-73
2022/03/13 15:34:32;;;;;;;2.47;2.28;;;;;;;16.07;43.56;101102.97;10377159;28;20159;-73
2022/03/13 15:39:32;;;;;;;1.92;1.83;;;;;;;16.08;43.88;101101.91;10376940;28;20033;-74
2022/03/13 15:44:33;;;;;;;2.65;1.95;;;;;;;15.87;43.74;101108.69;10401498;28;20434;-73
2022/03/13 15:49:33;;;;;;;2.22;2.03;;;;;;;15.79;44.12;101107.06;10416309;28;20095;-73
2022/03/13 15:54:35;;;;;;;3.60;2.28;;;;;;;15.69;44.40;101102.13;10417165;28;20110;-72
2022/03/13 15:59:36;;;;;;;3.25;2.08;;;;;;;15.61;44.76;101093.38;10417393;28;20369;-72
2022/03/13 16:04:36;;;;;;;2.17;1.92;;;;;;;15.63;44.97;101091.25;10399988;28;20037;-72
2022/03/13 16:09:37;;;;;;;3.70;2.03;;;;;;;15.67;45.40;101095.25;10415799;28;20484;-73
2022/03/13 16:14:38;;;;;;;2.40;2.20;;;;;;;15.52;46.01;101098.31;10417509;28;20042;-73
2022/03/13 16:19:38;;;;;;;2.55;2.25;;;;;;;15.44;46.14;101109.50;10415779;28;20037;-72
2022/03/13 16:24:38;;;;;;;3.08;2.75;;;;;;;15.46;46.05;101119.13;10416601;28;20033;-73
2022/03/13 16:29:39;;;;;;;3.45;2.85;;;;;;;15.45;46.12;101108.47;10416773;28;20045;-73
2022/03/13 16:34:42;;;;;;;5.63;3.15;;;;;;;15.24;47.04;101098.78;10398423;28;20514;-73
2022/03/13 16:39:42;;;;;;;3.08;2.58;;;;;;;15.18;47.47;101116.84;10414766;28;20085;-74
2022/03/13 16:44:43;;;;;;;1.63;1.52;;;;;;;15.04;47.76;101116.13;10415458;28;20034;-72
2022/03/13 16:49:43;;;;;;;6.13;3.45;;;;;;;15.02;47.93;101122.88;10414288;28;20033;-73
2022/03/13 16:54:44;;;;;;;2.78;2.55;;;;;;;14.94;48.50;101120.44;10414263;28;20470;-73
2022/03/13 16:59:49;;;;;;;3.30;3.00;;;;;;;14.91;48.82;101127.16;10415225;28;20037;-73
2022/03/13 17:04:49;;;;;;;2.88;2.67;;;;;;;14.94;48.82;101120.44;10398594;28;20083;-73
2022/03/13 17:09:49;;;;;;;3.38;2.78;;;;;;;14.86;49.00;101129.69;10414177;28;20033;-73
2022/03/13 17:14:50;;;;;;;3.30;3.00;;;;;;;14.67;49.77;101141.56;10415976;28;20033;-72
2022/03/13 17:19:51;;;;;;;3.42;2.65;;;;;;;14.68;49.74;101146.81;10414544;28;20069;-73
2022/03/13 17:24:51;;;;;;;3.72;3.22;;;;;;;14.61;49.62;101149.56;10415863;28;20549;-73
2022/03/13 17:29:52;;;;;;;2.58;2.22;;;;;;;14.60;50.29;101150.63;10397605;28;20063;-73
2022/03/13 17:34:52;;;;;;;3.30;3.00;;;;;;;14.49;50.62;101167.63;10414152;28;20100;-74
2022/03/13 17:39:53;;;;;;;2.30;2.10;;;;;;;14.41;51.01;101168.69;10414597;28;20049;-72
2022/03/13 17:44:53;;;;;;;2.97;2.58;;;;;;;14.36;51.58;101184.03;10414747;28;20040;-73
2022/03/13 17:49:53;;;;;;;3.42;2.67;;;;;;;14.38;51.72;101192.81;10414328;28;20482;-73
2022/03/13 17:54:54;;;;;;;7.00;3.72;;;;;;;14.42;50.99;101208.53;10417605;28;20112;-73
2022/03/13 17:59:54;;;;;;;6.00;4.32;;;;;;;14.35;51.77;101202.25;10417209;28;20087;-73
2022/03/13 18:04:55;;;;;;;3.05;2.80;;;;;;;14.36;51.80;101217.56;10417599;28;20029;-73
2022/03/13 18:09:55;;;;;;;3.17;2.80;;;;;;;14.35;51.65;101221.31;10414005;28;20041;-73
2022/03/13 18:14:57;;;;;;;4.38;3.35;;;;;;;14.34;51.52;101222.38;10420261;28;20527;-72
2022/03/13 18:19:57;;;;;;;4.82;4.50;;;;;;;14.34;52.04;101227.84;10421840;28;20048;-73
2022/03/13 18:24:58;;;;;;;7.85;6.65;;;;;;;14.33;52.50;101233.50;10421052;28;20076;-73
2022/03/13 18:29:58;;;;;;;5.63;3.70;;;;;;;14.31;52.55;101246.50;10421583;28;20121;-73
2022/03/13 18:34:58;;;;;;;3.67;2.97;;;;;;;14.19;52.74;101247.13;10421665;28;20050;-73
2022/03/13 18:40:00;;;;;;;5.53;3.75;;;;;;;14.15;52.96;101253.25;10419612;28;20042;-72
2022/03/13 18:45:00;;;;;;;11.48;6.47;;;;;;;14.18;52.99;101269.16;10403443;28;20115;-73
2022/03/13 18:50:03;;;;;;;3.10;2.80;;;;;;;14.12;53.49;101272.72;10420863;28;20064;-72
2022/03/13 18:55:03;;;;;;;2.22;2.03;;;;;;;13.95;54.74;101280.50;10419691;28;20033;-73
2022/03/13 19:00:05;;;;;;;4.30;3.17;;;;;;;13.78;55.83;101281.94;10420503;28;20125;-73
2022/03/13 19:05:06;;;;;;;3.00;2.80;;;;;;;13.75;56.05;101280.47;10420000;28;20404;-72
2022/03/13 19:10:07;;;;;;;4.53;2.85;;;;;;;13.73;56.40;101293.47;10419588;28;20055;-72
2022/03/13 19:15:13;;;;;;;6.82;3.67;;;;;;;13.68;57.09;101296.81;10419607;28;20501;-72
2022/03/13 19:20:13;;;;;;;4.45;2.67;;;;;;;13.58;58.33;101307.28;10419169;28;20057;-72
2022/03/13 19:25:14;;;;;;;3.75;3.40;;;;;;;13.59;58.30;101311.69;10417968;28;20030;-73
2022/03/13 19:30:14;;;;;;;4.50;3.42;;;;;;;13.52;58.38;101316.25;10417887;28;20542;-73
2022/03/13 19:35:14;;;;;;;2.97;2.78;;;;;;;13.50;57.95;101315.66;10419003;28;20091;-73
2022/03/13 19:40:17;;;;;;;4.18;3.50;;;;;;;13.36;58.93;101319.38;10416916;28;20037;-72
2022/03/13 19:45:17;;;;;;;3.78;3.40;;;;;;;13.35;58.97;101321.25;10418769;28;20450;-73
2022/03/13 19:50:18;;;;;;;4.55;3.10;;;;;;;13.24;59.69;101336.31;10417122;28;20064;-73
2022/03/13 19:55:19;;;;;;;3.47;2.95;;;;;;;12.70;62.22;101347.09;10418056;28;20029;-73
2022/03/13 20:00:21;;;;;;;2.80;2.55;;;;;;;12.47;63.37;101355.53;10416836;28;20040;-72
2022/03/13 20:05:23;;;;;;;5.30;2.95;;;;;;;12.25;64.86;101362.88;10416257;28;20086;-72
2022/03/13 20:10:26;;;;;;;2.38;2.17;;;;;;;11.91;67.05;101372.66;10417405;28;20457;-73
2022/03/13 20:15:26;;;;;;;3.33;2.25;;;;;;;11.71;69.18;101380.56;10418182;28;20034;-72
2022/03/13 20:20:27;;;;;;;2.38;2.03;;;;;;;11.66;68.31;101385.72;10417403;28;20163;-73
2022/03/13 20:25:28;;;;;;;2.13;2.03;;;;;;;11.59;70.30;101382.09;10417322;28;20037;-73
2022/03/13 20:30:29;;;;;;;3.17;2.88;;;;;;;11.75;69.35;101403.56;10415821;28;20056;-73
2022/03/13 20:35:29;;;;;;;2.20;2.10;;;;;;;11.84;68.93;101404.28;10415356;28;20384;-73
2022/03/13 20:40:30;;;;;;;3.47;2.47;;;;;;;11.92;68.95;101416.91;10414811;28;20042;-72
2022/03/13 20:45:31;;;;;;;5.18;2.08;;;;;;;12.04;68.31;101426.22;10415870;28;20034;-73
2022/03/13 20:50:31;;;;;;;2.72;2.22;;;;;;;11.99;68.28;101432.22;10414774;28;20091;-73
2022/03/13 20:55:32;;;;;;;1.55;1.48;;;;;;;11.94;68.60;101453.69;10415416;28;20311;-73
2022/03/13 21:00:32;;;;;;;2.72;2.53;;;;;;;11.83;68.33;101457.69;10415382;28;20041;-73
2022/03/13 21:05:33;;;;;;;2.50;2.05;;;;;;;11.77;68.54;101476.63;10414268;28;20025;-73
2022/03/13 21:10:33;;;;;;;3.08;2.25;;;;;;;11.72;69.04;101481.78;10413522;28;20124;-73
2022/03/13 21:15:34;;;;;;;3.05;2.15;;;;;;;11.68;69.39;101481.34;10414173;28;20037;-72
2022/03/13 21:20:34;;;;;;;2.33;2.05;;;;;;;11.70;69.62;101497.41;10414607;28;20547;-72
2022/03/13 21:25:35;;;;;;;2.80;2.55;;;;;;;11.64;69.71;101490.88;10413685;28;20033;-72
2022/03/13 21:30:35;;;;;;;1.92;1.83;;;;;;;11.73;69.56;101502.47;10414817;28;20546;-74
2022/03/13 21:35:36;;;;;;;4.55;2.72;;;;;;;11.56;70.97;101508.09;10414358;28;20050;-72
2022/03/13 21:40:36;;;;;;;2.42;2.22;;;;;;;11.64;69.88;101523.41;10414062;28;20045;-73
2022/03/13 21:45:37;;;;;;;2.30;1.98;;;;;;;11.55;70.97;101511.84;10414283;28;20040;-74
2022/03/13 21:50:38;;;;;;;2.00;1.90;;;;;;;11.66;70.02;101502.38;10413006;28;20393;-73
2022/03/13 21:55:38;;;;;;;2.58;2.28;;;;;;;11.60;71.36;101505.84;10414038;28;20178;-72
2022/03/13 22:00:39;;;;;;;3.47;2.63;;;;;;;11.66;69.36;101494.25;10414140;28;20083;-73
2022/03/13 22:05:39;;;;;;;3.53;3.15;;;;;;;11.76;68.33;101502.91;10412739;28;20052;-72
2022/03/13 22:10:41;;;;;;;2.40;2.15;;;;;;;11.74;69.38;101498.69;10413960;28;20049;-72
2022/03/13 22:15:45;;;;;;;2.67;1.98;;;;;;;11.69;69.02;101502.00;10412703;28;20026;-73
2022/03/13 22:20:46;;;;;;;3.58;2.33;;;;;;;11.77;68.81;101518.19;10396434;28;20056;-72
2022/03/13 22:25:46;;;;;;;3.83;1.88;;;;;;;11.76;68.64;101518.34;10413857;28;20033;-72
2022/03/13 22:30:46;;;;;;;2.85;1.75;;;;;;;11.68;69.49;101519.31;10414603;28;20041;-72
2022/03/13 22:35:47;;;;;;;2.03;1.92;;;;;;;11.75;69.26;101524.81;10413836;28;20119;-73
2022/03/13 22:40:47;;;;;;;2.55;2.35;;;;;;;11.69;69.97;101531.00;10412600;28;20056;-72
2022/03/13 22:45:48;;;;;;;2.28;1.92;;;;;;;11.64;69.77;101526.13;10413747;28;20061;-75
2022/03/13 22:51:06;;;;;;;2.15;2.05;;;;;;;11.59;70.35;101528.59;10413251;28;20033;-73
2022/03/13 22:56:08;;;;;;;3.42;3.03;;;;;;;11.57;70.72;101538.78;10411889;28;20037;-72
2022/03/13 23:01:09;;;;;;;2.78;2.58;;;;;;;11.20;73.24;101543.28;10416687;28;20045;-72
2022/03/13 23:06:10;;;;;;;4.47;2.33;;;;;;;11.12;73.67;101543.34;10403107;28;20466;-72